Time;durP1;ratioP1;P1;durP2;ratioP2;P2;SDS_P1;SDS_P2;PMS_P1;PMS_P2;Temp;Humidity;BMP_temperature;BMP_pressure;BME280_temperature;BME280_humidity;BME280_pressure;Samples;Min_cycle;Max_cycle;Signal;HPM_P1;HPM_P2
2022/04/02 00:02:03;;;;;;;4.93;3.50;;;;;;;;;;5011098;28;20018;-75
2022/04/02 00:04:28;;;;;;;5.63;3.65;;;;;;;;;;5009817;28;20272;-75
2022/04/02 00:06:54;;;;;;;4.93;3.80;;;;;;;;;;4995798;28;20153;-75
2022/04/02 00:09:20;;;;;;;4.35;3.47;;;;;;;;;;4995365;28;20526;-76
2022/04/02 00:11:45;;;;;;;5.38;4.00;;;;;;;;;;4993639;28;20022;-75
2022/04/02 00:14:11;;;;;;;7.90;3.67;;;;;;;;;;4994249;28;20507;-76
2022/04/02 00:16:36;;;;;;;4.97;3.72;;;;;;;;;;4994148;28;20428;-77
2022/04/02 00:19:01;;;;;;;4.77;3.70;;;;;;;;;;5008908;28;20514;-76
2022/04/02 00:21:27;;;;;;;4.35;3.45;;;;;;;;;;4993936;28;20742;-76
2022/04/02 00:23:52;;;;;;;4.47;3.35;;;;;;;;;;4994167;28;20518;-77
2022/04/02 00:26:20;;;;;;;4.68;3.50;;;;;;;;;;4994576;28;20022;-76
2022/04/02 00:28:48;;;;;;;4.13;3.28;;;;;;;;;;4997781;28;20037;-80
2022/04/02 00:31:13;;;;;;;4.80;3.25;;;;;;;;;;4999637;28;20050;-77
2022/04/02 00:33:39;;;;;;;4.35;3.25;;;;;;;;;;4994167;28;20068;-76
2022/04/02 00:36:05;;;;;;;5.85;3.65;;;;;;;;;;4992297;28;20392;-76
2022/04/02 00:38:30;;;;;;;4.93;3.50;;;;;;;;;;4993307;28;20432;-76
2022/04/02 00:40:56;;;;;;;4.38;3.25;;;;;;;;;;4993391;28;20037;-72
2022/04/02 00:43:22;;;;;;;6.30;3.50;;;;;;;;;;5008481;28;20078;-74
2022/04/02 00:45:48;;;;;;;4.80;3.65;;;;;;;;;;4992491;28;20022;-78
2022/04/02 00:48:13;;;;;;;5.18;3.15;;;;;;;;;;5008351;28;20048;-75
2022/04/02 00:50:39;;;;;;;4.82;3.47;;;;;;;;;;4993348;28;20019;-76
2022/04/02 00:53:04;;;;;;;4.80;3.15;;;;;;;;;;4993404;28;20026;-76
2022/04/02 00:55:30;;;;;;;6.03;3.40;;;;;;;;;;4995549;28;20077;-81
2022/04/02 00:57:56;;;;;;;3.95;3.03;;;;;;;;;;4996445;28;20454;-76
2022/04/02 01:00:21;;;;;;;4.57;3.03;;;;;;;;;;4996947;28;20075;-76
2022/04/02 01:02:47;;;;;;;5.68;3.28;;;;;;;;;;5008308;28;20025;-77
2022/04/02 01:05:12;;;;;;;6.45;3.30;;;;;;;;;;4993393;28;20400;-76
2022/04/02 01:07:39;;;;;;;4.25;3.28;;;;;;;;;;4992984;28;20105;-75
2022/04/02 01:10:04;;;;;;;6.45;3.83;;;;;;;;;;4992838;28;20080;-76
2022/04/02 01:12:30;;;;;;;6.50;4.72;;;;;;;;;;4992720;28;20034;-76
2022/04/02 01:14:55;;;;;;;5.57;4.97;;;;;;;;;;4992586;28;20068;-76
2022/04/02 01:17:22;;;;;;;5.85;4.95;;;;;;;;;;4992380;28;20483;-77
2022/04/02 01:19:47;;;;;;;4.15;3.75;;;;;;;;;;4992720;28;20121;-76
2022/04/02 01:22:12;;;;;;;4.25;3.80;;;;;;;;;;4992624;28;20530;-76
2022/04/02 01:24:38;;;;;;;4.30;3.90;;;;;;;;;;5007688;28;20024;-75
2022/04/02 01:27:03;;;;;;;5.07;4.07;;;;;;;;;;4998384;28;20554;-76
2022/04/02 01:29:32;;;;;;;5.68;3.72;;;;;;;;;;5012270;28;20075;-76
2022/04/02 01:31:58;;;;;;;3.88;3.47;;;;;;;;;;5010878;28;20022;-76
2022/04/02 01:34:24;;;;;;;4.35;3.60;;;;;;;;;;5012337;28;20084;-76
2022/04/02 01:36:49;;;;;;;4.22;3.75;;;;;;;;;;5012482;28;20057;-76
2022/04/02 01:39:15;;;;;;;4.05;3.65;;;;;;;;;;5012254;28;20660;-77
2022/04/02 01:41:40;;;;;;;4.28;3.72;;;;;;;;;;5012629;28;20018;-76
2022/04/02 01:44:05;;;;;;;3.72;3.30;;;;;;;;;;5012561;28;20044;-75
2022/04/02 01:46:30;;;;;;;4.35;3.45;;;;;;;;;;5013553;28;20427;-75
2022/04/02 01:48:55;;;;;;;5.07;3.70;;;;;;;;;;5013928;28;20032;-77
2022/04/02 01:51:21;;;;;;;4.13;3.50;;;;;;;;;;5013059;28;20266;-77
2022/04/02 01:53:46;;;;;;;3.92;3.53;;;;;;;;;;5012480;28;20124;-76
2022/04/02 01:56:11;;;;;;;3.97;3.47;;;;;;;;;;5011780;28;20030;-77
2022/04/02 01:58:36;;;;;;;5.18;4.35;;;;;;;;;;5011477;28;20479;-76
2022/04/02 02:01:02;;;;;;;4.35;3.95;;;;;;;;;;5010228;28;20029;-77
2022/04/02 02:03:27;;;;;;;4.35;3.78;;;;;;;;;;5011752;28;20024;-77
2022/04/02 02:05:53;;;;;;;5.97;4.10;;;;;;;;;;5011396;28;20018;-77
2022/04/02 02:08:18;;;;;;;4.88;3.92;;;;;;;;;;5011413;28;20483;-76
2022/04/02 02:10:44;;;;;;;4.15;3.75;;;;;;;;;;5011201;28;20010;-75
2022/04/02 02:13:09;;;;;;;4.88;3.70;;;;;;;;;;5011280;28;20022;-76
2022/04/02 02:15:34;;;;;;;4.07;3.67;;;;;;;;;;5011718;28;20050;-75
2022/04/02 02:18:00;;;;;;;4.93;3.90;;;;;;;;;;5009870;28;20025;-76
2022/04/02 02:20:25;;;;;;;4.28;3.85;;;;;;;;;;5011459;28;20022;-76
2022/04/02 02:22:50;;;;;;;4.82;3.90;;;;;;;;;;5011328;28;20014;-75
2022/04/02 02:25:16;;;;;;;4.63;4.22;;;;;;;;;;5011146;28;20061;-75
2022/04/02 02:27:43;;;;;;;5.28;4.07;;;;;;;;;;5011229;28;20557;-76
2022/04/02 02:30:09;;;;;;;4.57;3.80;;;;;;;;;;5011364;28;20022;-76
2022/04/02 02:32:37;;;;;;;4.05;3.65;;;;;;;;;;5011217;28;20566;-76
2022/04/02 02:38:00;;;;;;;3.80;3.40;;;;;;;;;;5009234;28;20028;-76
2022/04/02 02:40:25;;;;;;;3.97;3.30;;;;;;;;;;5015216;28;20113;-76
2022/04/02 02:42:51;;;;;;;4.00;3.60;;;;;;;;;;5014163;28;20287;-77
2022/04/02 02:45:16;;;;;;;4.10;3.50;;;;;;;;;;5010074;28;20021;-76
2022/04/02 02:47:41;;;;;;;4.70;4.00;;;;;;;;;;5011868;28;20023;-76
2022/04/02 02:50:07;;;;;;;4.30;3.83;;;;;;;;;;5011112;28;20025;-75
2022/04/02 02:52:32;;;;;;;4.65;3.90;;;;;;;;;;5010892;28;20026;-75
2022/04/02 02:54:57;;;;;;;5.97;3.92;;;;;;;;;;5010975;28;20515;-74
2022/04/02 02:57:23;;;;;;;4.30;3.67;;;;;;;;;;5010701;28;20026;-76
2022/04/02 02:59:48;;;;;;;4.13;3.72;;;;;;;;;;5009528;28;20522;-75
2022/04/02 03:02:13;;;;;;;5.22;4.38;;;;;;;;;;5009445;28;20080;-75
2022/04/02 03:04:39;;;;;;;4.50;3.95;;;;;;;;;;5009565;28;20018;-75
2022/04/02 03:07:04;;;;;;;5.20;4.43;;;;;;;;;;5009285;28;20049;-75
2022/04/02 03:09:29;;;;;;;5.88;3.92;;;;;;;;;;5009313;28;20030;-77
2022/04/02 03:11:56;;;;;;;4.97;4.30;;;;;;;;;;5009266;28;20028;-76
2022/04/02 03:14:21;;;;;;;5.38;4.25;;;;;;;;;;5010654;28;20081;-76
2022/04/02 03:16:46;;;;;;;4.88;4.38;;;;;;;;;;5011461;28;20437;-75
2022/04/02 03:19:11;;;;;;;6.30;4.20;;;;;;;;;;5010702;28;20032;-75
2022/04/02 03:21:37;;;;;;;5.82;4.80;;;;;;;;;;5010773;28;20029;-76
2022/04/02 03:24:02;;;;;;;4.53;4.10;;;;;;;;;;5010829;28;20467;-76
2022/04/02 03:26:27;;;;;;;4.85;4.10;;;;;;;;;;5013242;28;20075;-75
2022/04/02 03:28:52;;;;;;;4.55;4.00;;;;;;;;;;5013660;28;20018;-76
2022/04/02 03:31:18;;;;;;;4.47;4.07;;;;;;;;;;5010677;28;20022;-76
2022/04/02 03:33:43;;;;;;;4.50;3.95;;;;;;;;;;5010623;28;20033;-76
2022/04/02 03:36:10;;;;;;;4.70;4.25;;;;;;;;;;5010321;28;20006;-77
2022/04/02 03:38:35;;;;;;;4.30;3.90;;;;;;;;;;5011106;28;20026;-76
2022/04/02 03:41:02;;;;;;;4.85;4.35;;;;;;;;;;5013171;28;20026;-77
2022/04/02 03:43:27;;;;;;;4.88;4.38;;;;;;;;;;5014508;28;20029;-77
2022/04/02 03:45:52;;;;;;;5.28;4.78;;;;;;;;;;5013217;28;20018;-76
2022/04/02 03:48:18;;;;;;;5.45;4.95;;;;;;;;;;5012702;28;20017;-76
2022/04/02 03:50:43;;;;;;;6.50;5.90;;;;;;;;;;5013890;28;20490;-76
2022/04/02 03:53:09;;;;;;;7.00;6.30;;;;;;;;;;5009904;28;20025;-76
2022/04/02 03:55:34;;;;;;;6.43;5.82;;;;;;;;;;5000881;28;20025;-76
2022/04/02 03:57:59;;;;;;;5.82;5.32;;;;;;;;;;5013367;28;20104;-77
2022/04/02 04:00:24;;;;;;;6.63;5.82;;;;;;;;;;4999621;28;20072;-77
2022/04/02 04:02:50;;;;;;;5.90;5.30;;;;;;;;;;4993956;28;20030;-76
2022/04/02 04:05:15;;;;;;;5.93;5.22;;;;;;;;;;4993687;28;20491;-76
2022/04/02 04:07:41;;;;;;;5.80;5.25;;;;;;;;;;4993696;28;20049;-76
2022/04/02 04:10:06;;;;;;;5.32;4.82;;;;;;;;;;4993606;28;20073;-76
2022/04/02 04:12:32;;;;;;;9.02;5.38;;;;;;;;;;5005915;28;20014;-75
2022/04/02 04:14:57;;;;;;;5.03;4.53;;;;;;;;;;5013226;28;20054;-76
2022/04/02 04:17:23;;;;;;;6.88;5.03;;;;;;;;;;5013280;28;20106;-76
2022/04/02 04:19:50;;;;;;;5.68;5.15;;;;;;;;;;5012902;28;20593;-76
2022/04/02 04:22:15;;;;;;;6.65;5.95;;;;;;;;;;5013014;28;20607;-76
2022/04/02 04:24:41;;;;;;;5.80;5.15;;;;;;;;;;5013325;28;20022;-76
2022/04/02 04:27:06;;;;;;;5.32;4.72;;;;;;;;;;5012993;28;20487;-75
2022/04/02 04:29:31;;;;;;;6.15;4.90;;;;;;;;;;5013005;28;20022;-77
2022/04/02 04:31:56;;;;;;;6.30;5.38;;;;;;;;;;5012966;28;20018;-76
2022/04/02 04:34:22;;;;;;;6.22;4.72;;;;;;;;;;5011647;28;20021;-76
2022/04/02 04:36:47;;;;;;;5.20;4.55;;;;;;;;;;5012307;28;20026;-76
2022/04/02 04:39:12;;;;;;;7.97;4.88;;;;;;;;;;5013028;28;20034;-77
2022/04/02 04:41:38;;;;;;;5.68;4.88;;;;;;;;;;5012744;28;20030;-76
2022/04/02 04:44:04;;;;;;;5.68;5.07;;;;;;;;;;5012921;28;20109;-75
2022/04/02 04:46:29;;;;;;;6.22;5.20;;;;;;;;;;5013058;28;20025;-74
2022/04/02 04:48:56;;;;;;;6.70;5.25;;;;;;;;;;5002310;28;20018;-76
2022/04/02 04:51:23;;;;;;;10.10;7.68;;;;;;;;;;4998629;28;20015;-77
2022/04/02 04:53:49;;;;;;;6.47;5.57;;;;;;;;;;5011655;28;20050;-76
2022/04/02 04:56:15;;;;;;;23.55;13.20;;;;;;;;;;4992864;28;20500;-74
2022/04/02 04:58:40;;;;;;;23.35;14.82;;;;;;;;;;4992432;28;20038;-74
2022/04/02 05:01:06;;;;;;;14.05;10.43;;;;;;;;;;5007712;28;20377;-76
2022/04/02 05:03:32;;;;;;;19.58;12.18;;;;;;;;;;4991351;28;20029;-76
2022/04/02 05:05:57;;;;;;;17.38;10.35;;;;;;;;;;4992658;28;20026;-77
2022/04/02 05:08:23;;;;;;;14.02;10.30;;;;;;;;;;4992747;28;20018;-77
2022/04/02 05:10:49;;;;;;;9.25;7.28;;;;;;;;;;4992768;28;20113;-75
2022/04/02 05:13:14;;;;;;;17.95;11.15;;;;;;;;;;4992627;28;20019;-76
2022/04/02 05:15:40;;;;;;;6.10;5.50;;;;;;;;;;4992762;28;20415;-76
2022/04/02 05:18:06;;;;;;;6.22;5.57;;;;;;;;;;4992447;28;20018;-75
2022/04/02 05:20:31;;;;;;;8.45;5.45;;;;;;;;;;4992400;28;20019;-75
2022/04/02 05:22:56;;;;;;;6.15;5.43;;;;;;;;;;4992470;28;20108;-75
2022/04/02 05:25:21;;;;;;;6.35;5.75;;;;;;;;;;4992333;28;20033;-75
2022/04/02 05:27:47;;;;;;;5.60;5.10;;;;;;;;;;4992173;28;20476;-75
2022/04/02 05:30:13;;;;;;;5.82;5.20;;;;;;;;;;4992209;28;20027;-76
2022/04/02 05:32:39;;;;;;;6.07;5.47;;;;;;;;;;4993796;28;20018;-75
2022/04/02 05:35:04;;;;;;;7.75;5.82;;;;;;;;;;5007100;28;20562;-76
2022/04/02 05:37:30;;;;;;;5.70;5.10;;;;;;;;;;4992314;28;20026;-75
2022/04/02 05:39:56;;;;;;;5.55;5.00;;;;;;;;;;4992100;28;20098;-76
2022/04/02 05:42:21;;;;;;;6.15;5.35;;;;;;;;;;4992145;28;20018;-76
2022/04/02 05:44:47;;;;;;;6.45;5.80;;;;;;;;;;5007121;28;20037;-75
2022/04/02 05:47:12;;;;;;;8.15;7.35;;;;;;;;;;4994828;28;20423;-75
2022/04/02 05:49:37;;;;;;;8.02;6.40;;;;;;;;;;5019920;28;20068;-74
2022/04/02 05:52:04;;;;;;;6.85;6.15;;;;;;;;;;5031261;28;20045;-75
2022/04/02 05:54:30;;;;;;;7.80;6.53;;;;;;;;;;5031292;28;20029;-75
2022/04/02 05:56:55;;;;;;;7.10;6.40;;;;;;;;;;5024764;28;20072;-75
2022/04/02 05:59:21;;;;;;;6.30;5.70;;;;;;;;;;5013376;28;20037;-76
2022/04/02 06:01:47;;;;;;;5.32;4.82;;;;;;;;;;5013965;28;20033;-77
2022/04/02 06:04:12;;;;;;;6.25;5.65;;;;;;;;;;5017814;28;20056;-75
2022/04/02 06:06:38;;;;;;;6.57;5.90;;;;;;;;;;5020541;28;20067;-75
2022/04/02 06:09:03;;;;;;;7.30;5.50;;;;;;;;;;5015637;28;20088;-74
2022/04/02 06:11:29;;;;;;;7.78;6.53;;;;;;;;;;5014619;28;20101;-74
2022/04/02 06:13:54;;;;;;;7.43;6.22;;;;;;;;;;5012803;28;20096;-75
2022/04/02 06:16:21;;;;;;;6.70;6.00;;;;;;;;;;5020010;28;20029;-75
2022/04/02 06:18:46;;;;;;;9.05;6.32;;;;;;;;;;5018920;28;20033;-75
2022/04/02 06:21:14;;;;;;;11.40;8.68;;;;;;;;;;5009935;28;20014;-75
2022/04/02 06:23:39;;;;;;;11.48;9.63;;;;;;;;;;5019518;28;20034;-75
2022/04/02 06:26:04;;;;;;;7.22;6.22;;;;;;;;;;5012220;28;20789;-76
2022/04/02 06:28:30;;;;;;;6.05;5.38;;;;;;;;;;5019738;28;20394;-76
2022/04/02 06:30:56;;;;;;;9.00;6.50;;;;;;;;;;5020602;28;20021;-75
2022/04/02 06:33:21;;;;;;;9.20;6.00;;;;;;;;;;5012348;28;20022;-74
2022/04/02 06:35:46;;;;;;;11.38;7.68;;;;;;;;;;5020582;28;20026;-75
2022/04/02 06:38:15;;;;;;;7.40;6.65;;;;;;;;;;5009506;28;20376;-75
2022/04/02 06:40:40;;;;;;;66.43;39.25;;;;;;;;;;5009488;28;20180;-75
2022/04/02 06:43:06;;;;;;;71.55;37.97;;;;;;;;;;5015958;28;20535;-76
2022/04/02 06:45:31;;;;;;;18.40;10.63;;;;;;;;;;5012655;28;20013;-75
2022/04/02 06:47:56;;;;;;;7.22;5.78;;;;;;;;;;5012536;28;20764;-75
2022/04/02 06:50:21;;;;;;;5.63;5.03;;;;;;;;;;5017335;28;20463;-74
2022/04/02 06:52:47;;;;;;;5.88;4.82;;;;;;;;;;5012511;28;20045;-73
2022/04/02 06:55:13;;;;;;;6.18;5.20;;;;;;;;;;5023018;28;20019;-74
2022/04/02 06:57:42;;;;;;;10.55;8.30;;;;;;;;;;5020004;28;20022;-76
2022/04/02 07:00:08;;;;;;;5.68;4.80;;;;;;;;;;5018100;28;20033;-74
2022/04/02 07:02:33;;;;;;;5.90;5.30;;;;;;;;;;5014866;28;20099;-74
2022/04/02 07:04:58;;;;;;;7.47;5.22;;;;;;;;;;5016435;28;20108;-74
2022/04/02 07:07:24;;;;;;;7.45;5.50;;;;;;;;;;5010228;28;20057;-74
2022/04/02 07:09:49;;;;;;;6.57;5.45;;;;;;;;;;5010501;28;20379;-75
2022/04/02 07:12:14;;;;;;;6.05;4.25;;;;;;;;;;5009126;28;20057;-75
2022/04/02 07:14:40;;;;;;;5.05;3.78;;;;;;;;;;5012787;28;20056;-74
2022/04/02 07:17:05;;;;;;;4.50;3.67;;;;;;;;;;5014424;28;20136;-74
2022/04/02 07:19:32;;;;;;;9.30;4.40;;;;;;;;;;5013261;28;20034;-73
2022/04/02 07:21:58;;;;;;;7.90;4.07;;;;;;;;;;5014285;28;20026;-74
2022/04/02 07:24:24;;;;;;;5.38;4.25;;;;;;;;;;5014655;28;20030;-73
2022/04/02 07:26:51;;;;;;;7.53;4.32;;;;;;;;;;5014238;28;20014;-72
2022/04/02 07:29:16;;;;;;;6.00;4.20;;;;;;;;;;5012713;28;20523;-74
2022/04/02 07:31:44;;;;;;;7.75;5.45;;;;;;;;;;5013752;28;20156;-74
2022/04/02 07:34:09;;;;;;;9.30;4.93;;;;;;;;;;5012678;28;20434;-74
2022/04/02 07:36:55;;;;;;;9.68;6.85;;;;;;;;;;5013974;28;20482;-74
2022/04/02 07:39:23;;;;;;;7.45;4.47;;;;;;;;;;5013510;28;20487;-73
2022/04/02 07:41:57;;;;;;;6.63;4.45;;;;;;;;;;5013817;28;20029;-74
2022/04/02 07:44:38;;;;;;;9.07;4.53;;;;;;;;;;5005913;28;20026;-76
2022/04/02 07:47:05;;;;;;;7.82;3.65;;;;;;;;;;4993153;28;20094;-75
2022/04/02 07:49:30;;;;;;;5.43;3.10;;;;;;;;;;4993947;28;20105;-75
2022/04/02 07:51:56;;;;;;;6.65;4.20;;;;;;;;;;4993571;28;20464;-75
2022/04/02 07:54:22;;;;;;;5.55;3.83;;;;;;;;;;4992476;28;20011;-75
2022/04/02 07:56:54;;;;;;;5.50;3.70;;;;;;;;;;4993826;28;20033;-74
2022/04/02 07:59:25;;;;;;;6.03;3.75;;;;;;;;;;4993782;28;20480;-73
2022/04/02 08:01:50;;;;;;;3.83;3.22;;;;;;;;;;4993704;28;20018;-73
2022/04/02 08:04:16;;;;;;;5.10;3.50;;;;;;;;;;4993966;28;20033;-74
2022/04/02 08:06:43;;;;;;;4.75;3.50;;;;;;;;;;4993574;28;20392;-73
2022/04/02 08:09:08;;;;;;;5.85;4.32;;;;;;;;;;4993706;28;20026;-74
2022/04/02 08:11:37;;;;;;;4.75;4.18;;;;;;;;;;4992306;28;20111;-74
2022/04/02 08:14:02;;;;;;;5.80;4.53;;;;;;;;;;4992445;28;20520;-74
2022/04/02 08:16:28;;;;;;;5.35;4.35;;;;;;;;;;4994029;28;20064;-75
2022/04/02 08:18:55;;;;;;;6.20;4.10;;;;;;;;;;4994156;28;20201;-73
2022/04/02 08:21:21;;;;;;;5.38;4.20;;;;;;;;;;4993375;28;20019;-75
2022/04/02 08:23:46;;;;;;;6.10;4.70;;;;;;;;;;4993287;28;20019;-74
2022/04/02 08:26:28;;;;;;;8.73;5.40;;;;;;;;;;4993085;28;20089;-74
2022/04/02 08:29:06;;;;;;;11.30;6.18;;;;;;;;;;4993390;28;20032;-74
2022/04/02 08:31:35;;;;;;;8.48;5.80;;;;;;;;;;4993589;28;20026;-73
2022/04/02 08:34:03;;;;;;;9.30;6.63;;;;;;;;;;4992253;28;20026;-74
2022/04/02 08:36:52;;;;;;;8.60;6.90;;;;;;;;;;4992114;28;20076;-74
2022/04/02 08:39:17;;;;;;;7.97;6.32;;;;;;;;;;4992855;28;20054;-73
2022/04/02 08:42:18;;;;;;;7.47;5.82;;;;;;;;;;4993469;28;20018;-73
2022/04/02 08:44:58;;;;;;;7.68;6.40;;;;;;;;;;4990803;28;20461;-74
2022/04/02 08:47:42;;;;;;;8.77;6.80;;;;;;;;;;4993380;28;20030;-73
2022/04/02 08:50:10;;;;;;;8.48;6.72;;;;;;;;;;4993414;28;20157;-73
2022/04/02 08:52:41;;;;;;;9.02;7.07;;;;;;;;;;4992002;28;20112;-73
2022/04/02 08:55:09;;;;;;;9.20;7.32;;;;;;;;;;4993001;28;20079;-73
2022/04/02 08:57:52;;;;;;;8.85;7.10;;;;;;;;;;4993046;28;20499;-73
2022/04/02 09:00:25;;;;;;;11.25;8.40;;;;;;;;;;5006482;28;20033;-74
2022/04/02 09:02:53;;;;;;;10.77;8.55;;;;;;;;;;5011478;28;20118;-74
2022/04/02 09:05:28;;;;;;;11.63;9.02;;;;;;;;;;5021073;28;20022;-74
2022/04/02 09:07:56;;;;;;;14.65;9.68;;;;;;;;;;5018402;28;20029;-73
2022/04/02 09:10:27;;;;;;;13.45;9.07;;;;;;;;;;5020568;28;20017;-73
2022/04/02 09:12:59;;;;;;;10.75;8.48;;;;;;;;;;5016349;28;20033;-75
2022/04/02 09:15:47;;;;;;;11.57;9.38;;;;;;;;;;5021548;28;20574;-74
2022/04/02 09:18:12;;;;;;;10.93;8.40;;;;;;;;;;5010132;28;20026;-74
2022/04/02 09:20:44;;;;;;;12.10;8.53;;;;;;;;;;5023943;28;20033;-74
2022/04/02 09:23:11;;;;;;;11.80;7.45;;;;;;;;;;5024883;28;20267;-73
2022/04/02 09:25:52;;;;;;;11.65;8.60;;;;;;;;;;5010663;28;20025;-73
2022/04/02 09:28:20;;;;;;;10.93;8.23;;;;;;;;;;5021417;28;20045;-75
2022/04/02 09:30:45;;;;;;;10.30;7.75;;;;;;;;;;5010675;28;20364;-73
2022/04/02 09:33:22;;;;;;;10.05;8.02;;;;;;;;;;5016069;28;20022;-73
2022/04/02 09:35:51;;;;;;;8.57;7.60;;;;;;;;;;5020551;28;20021;-73
2022/04/02 09:38:27;;;;;;;9.18;7.55;;;;;;;;;;5015640;28;20083;-73
2022/04/02 09:40:59;;;;;;;9.32;7.57;;;;;;;;;;5020001;28;20108;-73
2022/04/02 09:43:24;;;;;;;9.13;7.53;;;;;;;;;;5019508;28;20026;-72
2022/04/02 09:46:04;;;;;;;12.23;8.23;;;;;;;;;;5020479;28;20014;-74
2022/04/02 09:48:37;;;;;;;10.85;8.15;;;;;;;;;;5010807;28;20017;-74
2022/04/02 09:51:04;;;;;;;10.40;8.35;;;;;;;;;;5011014;28;20030;-73
2022/04/02 09:53:33;;;;;;;11.75;9.13;;;;;;;;;;5010575;28;20026;-73
2022/04/02 09:56:28;;;;;;;13.95;9.60;;;;;;;;;;5010460;28;20124;-74
2022/04/02 09:58:57;;;;;;;11.63;9.48;;;;;;;;;;5011687;28;20105;-77
2022/04/02 10:01:22;;;;;;;11.55;8.38;;;;;;;;;;5020983;28;20440;-74
2022/04/02 10:03:48;;;;;;;10.35;7.60;;;;;;;;;;5018783;28;20089;-74
2022/04/02 10:06:25;;;;;;;102.70;50.20;;;;;;;;;;5020820;28;20017;-73
2022/04/02 10:09:04;;;;;;;21.42;14.30;;;;;;;;;;5012507;28;20068;-77
2022/04/02 10:11:30;;;;;;;31.60;20.30;;;;;;;;;;5011610;28;20034;-74
2022/04/02 10:13:58;;;;;;;9.30;7.97;;;;;;;;;;5009816;28;20104;-74
2022/04/02 10:16:24;;;;;;;8.10;6.18;;;;;;;;;;5011001;28;20026;-74
2022/04/02 10:18:52;;;;;;;8.98;6.97;;;;;;;;;;5009394;28;20060;-75
2022/04/02 10:21:18;;;;;;;8.45;6.38;;;;;;;;;;5009188;28;20069;-74
2022/04/02 10:23:50;;;;;;;8.75;6.75;;;;;;;;;;5010476;28;20022;-74
2022/04/02 10:26:16;;;;;;;6.78;5.82;;;;;;;;;;5009030;28;20033;-74
2022/04/02 10:28:50;;;;;;;7.05;5.60;;;;;;;;;;5010308;28;20022;-73
2022/04/02 10:31:28;;;;;;;6.78;5.88;;;;;;;;;;5010297;28;20025;-74
2022/04/02 10:33:58;;;;;;;7.95;5.20;;;;;;;;;;5010196;28;20052;-74
2022/04/02 10:36:24;;;;;;;9.18;5.32;;;;;;;;;;5010158;28;20013;-73
2022/04/02 10:38:51;;;;;;;7.15;5.85;;;;;;;;;;5010511;28;20038;-74
2022/04/02 10:41:17;;;;;;;12.07;6.07;;;;;;;;;;5011221;28;20104;-73
2022/04/02 10:43:42;;;;;;;8.35;6.10;;;;;;;;;;5011154;28;20064;-74
2022/04/02 10:46:08;;;;;;;9.43;6.57;;;;;;;;;;5008918;28;20105;-73
2022/04/02 10:48:52;;;;;;;7.63;5.63;;;;;;;;;;5009285;28;20272;-73
2022/04/02 10:51:21;;;;;;;8.10;5.88;;;;;;;;;;5010078;28;20026;-73
2022/04/02 10:53:46;;;;;;;6.10;5.30;;;;;;;;;;5010018;28;20014;-73
2022/04/02 10:56:15;;;;;;;9.90;6.80;;;;;;;;;;5010200;28;20022;-72
2022/04/02 10:58:43;;;;;;;14.82;8.52;;;;;;;;;;5010547;28;20029;-72
2022/04/02 11:01:10;;;;;;;13.23;7.85;;;;;;;;;;5010579;28;20022;-73
2022/04/02 11:03:39;;;;;;;10.60;7.20;;;;;;;;;;5010779;28;20016;-72
2022/04/02 11:06:05;;;;;;;8.55;6.38;;;;;;;;;;5009757;28;20029;-73
2022/04/02 11:08:31;;;;;;;11.95;6.35;;;;;;;;;;5008332;28;20468;-73
2022/04/02 11:10:57;;;;;;;9.55;6.90;;;;;;;;;;5010335;28;20014;-73
2022/04/02 11:16:01;;;;;;;;;;;;;;;;;;5106885;27;1323706;-73
2022/04/02 11:18:26;;;;;;;11.93;8.20;;;;;;;;;;5150356;27;19907;-73
2022/04/02 11:21:01;;;;;;;14.43;7.15;;;;;;;;;;5148387;27;20031;-73
2022/04/02 11:23:45;;;;;;;9.93;6.68;;;;;;;;;;5150178;27;20027;-73
2022/04/02 11:26:12;;;;;;;8.68;6.70;;;;;;;;;;5152700;27;20023;-75
2022/04/02 11:28:44;;;;;;;19.48;6.80;;;;;;;;;;5152169;27;20011;-73
2022/04/02 11:31:11;;;;;;;7.03;4.72;;;;;;;;;;5149481;27;20473;-74
2022/04/02 11:33:48;;;;;;;10.73;5.45;;;;;;;;;;5149455;27;20023;-73
2022/04/02 11:36:14;;;;;;;13.52;5.55;;;;;;;;;;5149469;27;20360;-74
2022/04/02 11:38:42;;;;;;;9.32;5.65;;;;;;;;;;5149593;27;20011;-74
2022/04/02 11:41:27;;;;;;;10.32;5.32;;;;;;;;;;5149308;27;20030;-74
2022/04/02 11:44:03;;;;;;;10.20;5.47;;;;;;;;;;5149367;27;20029;-74
2022/04/02 11:46:28;;;;;;;9.93;6.32;;;;;;;;;;5149381;27;20071;-74
2022/04/02 11:48:55;;;;;;;11.30;7.20;;;;;;;;;;5149999;27;20022;-74
2022/04/02 11:51:22;;;;;;;11.30;7.10;;;;;;;;;;5149217;27;20026;-73
2022/04/02 11:53:47;;;;;;;9.50;6.22;;;;;;;;;;5148071;27;20479;-76
2022/04/02 11:56:33;;;;;;;9.48;6.40;;;;;;;;;;5149672;27;20023;-74
2022/04/02 11:58:59;;;;;;;8.23;5.28;;;;;;;;;;5150562;27;20019;-74
2022/04/02 12:01:25;;;;;;;7.32;4.97;;;;;;;;;;5151382;27;20034;-74
2022/04/02 12:04:12;;;;;;;9.85;4.80;;;;;;;;;;5151785;27;20023;-74
2022/04/02 12:06:37;;;;;;;7.35;4.80;;;;;;;;;;5152119;27;20054;-74
2022/04/02 12:09:13;;;;;;;14.13;5.97;;;;;;;;;;5151432;27;20034;-74
2022/04/02 12:11:42;;;;;;;8.35;5.30;;;;;;;;;;5147775;27;20113;-74
2022/04/02 12:14:08;;;;;;;9.45;5.22;;;;;;;;;;5148318;27;20059;-74
2022/04/02 12:16:33;;;;;;;10.30;6.03;;;;;;;;;;5147798;27;20065;-76
2022/04/02 12:18:58;;;;;;;8.43;5.30;;;;;;;;;;5148951;27;20483;-74
2022/04/02 12:21:31;;;;;;;7.13;4.70;;;;;;;;;;5124069;27;20414;-75
2022/04/02 12:23:59;;;;;;;10.15;6.07;;;;;;;;;;5127673;27;20035;-75
2022/04/02 12:26:25;;;;;;;11.05;6.25;;;;;;;;;;5118514;28;20087;-75
2022/04/02 12:28:55;;;;;;;11.07;6.82;;;;;;;;;;5114010;28;20106;-77
2022/04/02 12:31:20;;;;;;;10.35;5.95;;;;;;;;;;5114027;28;20393;-76
2022/04/02 12:33:52;;;;;;;8.65;4.95;;;;;;;;;;5113603;28;20030;-75
2022/04/02 12:36:18;;;;;;;6.80;4.50;;;;;;;;;;5114000;28;20102;-76
2022/04/02 12:38:43;;;;;;;6.93;4.38;;;;;;;;;;5114066;28;20090;-77
2022/04/02 12:41:22;;;;;;;5.82;4.32;;;;;;;;;;5113981;28;20031;-75
2022/04/02 12:43:48;;;;;;;6.00;3.60;;;;;;;;;;5113898;28;20090;-75
2022/04/02 12:46:21;;;;;;;6.10;3.92;;;;;;;;;;5113793;28;20026;-76
2022/04/02 12:48:46;;;;;;;7.88;4.72;;;;;;;;;;5114216;27;20061;-75
2022/04/02 12:51:16;;;;;;;10.52;5.63;;;;;;;;;;5113794;28;20070;-75
2022/04/02 12:53:42;;;;;;;9.55;4.55;;;;;;;;;;5112683;28;20043;-80
2022/04/02 12:56:16;;;;;;;7.35;4.55;;;;;;;;;;5115525;28;20472;-74
2022/04/02 12:58:42;;;;;;;6.85;4.25;;;;;;;;;;5113299;28;20440;-75
2022/04/02 13:01:29;;;;;;;9.55;4.70;;;;;;;;;;5113250;28;20078;-75
2022/04/02 13:04:03;;;;;;;10.07;6.18;;;;;;;;;;5111756;28;20066;-74
2022/04/02 13:06:30;;;;;;;10.48;6.35;;;;;;;;;;5111902;28;20092;-74
2022/04/02 13:08:57;;;;;;;39.60;22.35;;;;;;;;;;5111957;28;20541;-74
2022/04/02 13:11:31;;;;;;;7.78;5.10;;;;;;;;;;5112888;28;20484;-75
2022/04/02 13:14:02;;;;;;;8.05;5.60;;;;;;;;;;5112630;28;20380;-75
2022/04/02 13:16:35;;;;;;;12.23;5.43;;;;;;;;;;5112926;28;20028;-76
2022/04/02 13:21:48;;;;;;;8.57;5.80;;;;;;;;;;5113008;28;20049;-75
2022/04/02 13:24:20;;;;;;;9.75;5.78;;;;;;;;;;5113062;28;20012;-75
2022/04/02 13:27:08;;;;;;;7.35;4.97;;;;;;;;;;5113048;28;20023;-75
2022/04/02 13:30:09;;;;;;;6.93;4.90;;;;;;;;;;5102275;28;20039;-75
2022/04/02 13:32:53;;;;;;;7.32;4.57;;;;;;;;;;5029977;28;20060;-75
2022/04/02 13:35:36;;;;;;;8.57;5.10;;;;;;;;;;5106869;28;20127;-78
2022/04/02 13:38:11;;;;;;;13.13;5.07;;;;;;;;;;5117743;28;20081;-75
2022/04/02 13:40:37;;;;;;;9.18;5.05;;;;;;;;;;5115014;28;20077;-75
2022/04/02 13:43:09;;;;;;;7.90;4.63;;;;;;;;;;5111571;28;20020;-74
2022/04/02 13:45:46;;;;;;;7.95;4.82;;;;;;;;;;5111357;28;20397;-75
2022/04/02 13:48:17;;;;;;;7.70;4.53;;;;;;;;;;5111621;28;20028;-75
2022/04/02 13:50:59;;;;;;;9.90;4.82;;;;;;;;;;5115617;28;20034;-74
2022/04/02 13:53:32;;;;;;;7.85;4.55;;;;;;;;;;5112643;28;20031;-75
2022/04/02 13:56:03;;;;;;;10.05;6.32;;;;;;;;;;5111961;28;20038;-74
2022/04/02 13:58:33;;;;;;;7.38;5.40;;;;;;;;;;5112339;28;20428;-75
2022/04/02 14:01:00;;;;;;;8.73;5.45;;;;;;;;;;5112279;28;20076;-76
2022/04/02 14:03:26;;;;;;;10.65;5.20;;;;;;;;;;5112088;28;20055;-75
2022/04/02 14:05:55;;;;;;;7.88;5.45;;;;;;;;;;5112418;28;20016;-74
2022/04/02 14:08:23;;;;;;;9.45;6.10;;;;;;;;;;5110538;27;20058;-74
2022/04/02 14:10:49;;;;;;;11.48;5.53;;;;;;;;;;5117144;27;20064;-74
2022/04/02 14:13:17;;;;;;;9.48;6.50;;;;;;;;;;5111330;28;20079;-75
2022/04/02 14:15:51;;;;;;;10.18;6.25;;;;;;;;;;5111148;28;20520;-71
2022/04/02 14:18:20;;;;;;;9.18;5.65;;;;;;;;;;5111049;27;20088;-72
2022/04/02 14:20:49;;;;;;;11.20;6.60;;;;;;;;;;5113141;27;20063;-72
2022/04/02 14:23:17;;;;;;;9.40;6.22;;;;;;;;;;5122692;27;20019;-72
2022/04/02 14:26:09;;;;;;;9.10;6.05;;;;;;;;;;5117287;27;20383;-72
2022/04/02 14:28:37;;;;;;;10.77;6.15;;;;;;;;;;5077505;28;20172;-74
2022/04/02 14:31:15;;;;;;;9.75;6.25;;;;;;;;;;5110411;28;20070;-72
2022/04/02 14:33:49;;;;;;;10.45;7.03;;;;;;;;;;5119780;27;20026;-72
2022/04/02 14:36:33;;;;;;;10.87;6.77;;;;;;;;;;5115975;27;20035;-73
2022/04/02 14:39:01;;;;;;;9.48;6.03;;;;;;;;;;5122190;27;20027;-72
2022/04/02 14:41:27;;;;;;;15.57;6.97;;;;;;;;;;5110779;28;20043;-76
2022/04/02 14:44:11;;;;;;;10.93;6.65;;;;;;;;;;5110732;28;20547;-75
2022/04/02 14:46:39;;;;;;;10.60;6.93;;;;;;;;;;5130211;27;20026;-74
2022/04/02 14:49:07;;;;;;;10.90;6.85;;;;;;;;;;5116045;27;20026;-75
2022/04/02 14:51:41;;;;;;;11.05;7.05;;;;;;;;;;5120931;27;20027;-76
2022/04/02 14:54:15;;;;;;;11.80;7.40;;;;;;;;;;5113717;27;20023;-75
2022/04/02 14:56:40;;;;;;;10.20;6.40;;;;;;;;;;5127455;27;20039;-75